createdAt,value
2018-12-10T00:02:07.994Z,5.10
2018-12-10T00:04:35.844Z,5.10
2018-12-10T00:07:03.617Z,5.00
2018-12-10T00:09:31.506Z,5.10
2018-12-10T00:11:59.250Z,5.00
2018-12-10T00:14:27.033Z,5.00
2018-12-10T00:16:54.766Z,4.90
2018-12-10T00:19:22.565Z,4.90
2018-12-10T00:21:50.353Z,4.90
2018-12-10T00:24:18.167Z,4.90
2018-12-10T00:26:45.963Z,4.80
2018-12-10T00:29:13.790Z,4.80
2018-12-10T00:31:42.570Z,4.80
2018-12-10T00:34:10.307Z,4.80
2018-12-10T00:36:38.049Z,4.70
2018-12-10T00:39:06.831Z,4.70
2018-12-10T00:41:34.631Z,4.60
2018-12-10T00:44:02.557Z,4.60
2018-12-10T00:46:30.291Z,4.60
2018-12-10T00:48:58.091Z,4.60
2018-12-10T00:51:25.812Z,4.60
2018-12-10T00:53:53.586Z,4.70
2018-12-10T00:56:21.319Z,4.70
2018-12-10T00:58:49.070Z,4.70
2018-12-10T01:01:16.835Z,4.70
2018-12-10T01:03:44.534Z,4.80
2018-12-10T01:06:12.243Z,4.80
2018-12-10T01:08:39.998Z,4.70
2018-12-10T01:11:07.806Z,4.70
2018-12-10T01:13:35.559Z,4.70
2018-12-10T01:16:03.236Z,4.60
2018-12-10T01:18:31.169Z,4.50
2018-12-10T01:20:59.642Z,4.50
2018-12-10T01:23:27.419Z,4.50
2018-12-10T01:25:55.085Z,4.50
2018-12-10T01:28:22.885Z,4.40
2018-12-10T01:30:50.584Z,4.40
2018-12-10T01:33:18.312Z,4.40
2018-12-10T01:35:46.069Z,4.40
2018-12-10T01:38:13.908Z,4.40
2018-12-10T01:40:41.589Z,4.40
2018-12-10T01:43:09.432Z,4.30
2018-12-10T01:45:37.295Z,4.30
2018-12-10T01:48:05.071Z,4.30
2018-12-10T01:50:32.834Z,4.30
2018-12-10T01:53:00.497Z,4.30
2018-12-10T01:55:28.267Z,4.30
2018-12-10T01:57:56.003Z,4.30
2018-12-10T02:00:23.752Z,4.40
2018-12-10T02:02:51.497Z,4.30
2018-12-10T02:05:19.188Z,4.30
2018-12-10T02:07:46.952Z,4.20
2018-12-10T02:10:14.745Z,4.20
2018-12-10T02:12:42.512Z,4.30
2018-12-10T02:15:10.249Z,4.30
2018-12-10T02:17:37.929Z,4.40
2018-12-10T02:20:05.831Z,4.50
2018-12-10T02:22:34.540Z,4.60
2018-12-10T02:25:02.239Z,4.60
2018-12-10T02:27:30.023Z,4.60
2018-12-10T02:29:57.681Z,4.60
2018-12-10T02:32:25.396Z,4.50
2018-12-10T02:34:53.054Z,4.50
2018-12-10T02:37:20.790Z,4.50
2018-12-10T02:39:48.495Z,4.40
2018-12-10T02:42:16.164Z,4.40
2018-12-10T02:44:43.912Z,4.40
2018-12-10T02:47:11.578Z,4.40
2018-12-10T02:49:39.340Z,4.40
2018-12-10T02:52:07.011Z,4.40
2018-12-10T02:54:34.713Z,4.30
2018-12-10T02:57:02.374Z,4.30
2018-12-10T02:59:30.209Z,4.30
2018-12-10T03:01:57.982Z,4.30
2018-12-10T03:04:26.186Z,4.30
2018-12-10T03:06:53.890Z,4.40
2018-12-10T03:09:21.816Z,4.40
2018-12-10T03:11:49.534Z,4.40
2018-12-10T03:14:17.394Z,4.40
2018-12-10T03:16:45.164Z,4.30
2018-12-10T03:19:12.958Z,4.30
2018-12-10T03:21:40.691Z,4.20
2018-12-10T03:24:08.358Z,4.30
2018-12-10T03:26:36.085Z,4.20
2018-12-10T03:29:03.786Z,4.20
2018-12-10T03:31:31.774Z,4.20
2018-12-10T03:34:00.307Z,4.20
2018-12-10T03:36:28.261Z,4.20
2018-12-10T03:38:56.236Z,4.20
2018-12-10T03:41:24.287Z,4.10
2018-12-10T03:43:52.166Z,4.10
2018-12-10T03:46:20.033Z,4.10
2018-12-10T03:48:48.253Z,4.00
2018-12-10T03:51:16.241Z,4.00
2018-12-10T03:53:44.240Z,4.00
2018-12-10T03:56:12.956Z,4.00
2018-12-10T03:58:40.778Z,4.00
2018-12-10T04:01:08.696Z,4.10
2018-12-10T04:03:37.259Z,4.10
2018-12-10T04:06:05.425Z,4.20
2018-12-10T04:08:33.510Z,4.20
2018-12-10T04:11:01.665Z,4.10
2018-12-10T04:13:29.631Z,4.10
2018-12-10T04:15:57.591Z,4.20
2018-12-10T04:18:25.771Z,4.20
2018-12-10T04:20:54.271Z,4.10
2018-12-10T04:23:22.354Z,4.10
2018-12-10T04:25:50.545Z,4.10
2018-12-10T04:28:18.985Z,4.20
2018-12-10T04:30:47.136Z,4.20
2018-12-10T04:33:15.136Z,4.10
2018-12-10T04:35:43.212Z,4.00
2018-12-10T04:38:11.390Z,4.00
2018-12-10T04:40:39.315Z,3.90
2018-12-10T04:43:07.355Z,3.90
2018-12-10T04:45:35.367Z,3.80
2018-12-10T04:48:03.299Z,3.80
2018-12-10T04:50:31.259Z,3.80
2018-12-10T04:52:59.317Z,3.80
2018-12-10T04:55:27.293Z,3.80
2018-12-10T04:57:55.359Z,3.80
2018-12-10T05:00:23.464Z,3.80
2018-12-10T05:02:51.487Z,3.90
2018-12-10T05:05:19.532Z,4.00
2018-12-10T05:07:47.535Z,4.10
2018-12-10T05:10:15.497Z,4.10
2018-12-10T05:12:43.584Z,4.10
2018-12-10T05:15:11.754Z,4.10
2018-12-10T05:17:39.552Z,4.20
2018-12-10T05:20:07.319Z,4.10
2018-12-10T05:22:35.076Z,4.10
2018-12-10T05:25:02.896Z,4.20
2018-12-10T05:27:30.654Z,4.20
2018-12-10T05:29:58.392Z,4.20
2018-12-10T05:32:26.089Z,4.20
2018-12-10T05:34:53.839Z,4.20
2018-12-10T05:37:21.740Z,4.10
2018-12-10T05:39:49.462Z,4.00
2018-12-10T05:42:17.103Z,4.00
2018-12-10T05:44:44.864Z,3.90
2018-12-10T05:47:12.925Z,3.80
2018-12-10T05:49:40.917Z,3.80
2018-12-10T05:52:08.705Z,3.70
2018-12-10T05:54:36.472Z,3.70
2018-12-10T05:57:04.700Z,3.60
2018-12-10T05:59:32.462Z,3.60
2018-12-10T06:02:00.442Z,3.50
2018-12-10T06:04:28.221Z,3.40
2018-12-10T06:06:55.960Z,3.40
2018-12-10T06:09:24.412Z,3.30
2018-12-10T06:11:52.321Z,3.30
2018-12-10T06:14:20.038Z,3.40
2018-12-10T06:16:47.957Z,3.40
2018-12-10T06:19:15.657Z,3.40
2018-12-10T06:21:43.560Z,3.30
2018-12-10T06:24:11.541Z,3.30
2018-12-10T06:26:39.337Z,3.30
2018-12-10T06:29:07.416Z,3.30
2018-12-10T06:31:35.234Z,3.30
2018-12-10T06:34:03.104Z,3.40
2018-12-10T06:36:31.320Z,3.40
2018-12-10T06:38:59.209Z,3.40
2018-12-10T06:41:26.957Z,3.40
2018-12-10T06:43:54.617Z,3.50
2018-12-10T06:46:22.327Z,3.50
2018-12-10T06:48:50.058Z,3.50
2018-12-10T06:51:17.768Z,3.40
2018-12-10T06:53:45.548Z,3.40
2018-12-10T06:56:13.291Z,3.40
2018-12-10T06:58:41.007Z,3.30
2018-12-10T07:01:08.812Z,3.30
2018-12-10T07:03:36.524Z,3.30
2018-12-10T07:06:04.441Z,3.20
2018-12-10T07:08:32.273Z,3.20
2018-12-10T07:11:00.002Z,3.20
2018-12-10T07:13:27.688Z,3.30
2018-12-10T07:15:55.450Z,3.30
2018-12-10T07:18:23.229Z,3.20
2018-12-10T07:20:51.003Z,3.30
2018-12-10T07:23:18.863Z,3.30
2018-12-10T07:25:46.623Z,3.30
2018-12-10T07:28:14.668Z,3.40
2018-12-10T07:30:42.414Z,3.40
2018-12-10T07:33:10.119Z,3.40
2018-12-10T07:35:38.727Z,3.50
2018-12-10T07:38:06.588Z,3.50
2018-12-10T07:40:34.406Z,3.60
2018-12-10T07:43:02.065Z,3.70
2018-12-10T07:45:29.768Z,3.80
2018-12-10T07:47:57.464Z,3.80
2018-12-10T07:50:25.197Z,3.80
2018-12-10T07:52:52.909Z,3.70
2018-12-10T07:55:20.611Z,3.80
2018-12-10T07:57:48.348Z,4.00
2018-12-10T08:00:16.275Z,4.10
2018-12-10T08:02:43.959Z,4.00
2018-12-10T08:05:12.663Z,3.90
2018-12-10T08:07:40.417Z,3.80
2018-12-10T08:10:08.432Z,3.80
2018-12-10T08:12:36.142Z,3.80
2018-12-10T08:15:05.192Z,3.90
2018-12-10T08:17:34.258Z,4.10
2018-12-10T08:20:01.987Z,4.20
2018-12-10T08:22:29.722Z,4.20
2018-12-10T08:24:57.451Z,4.30
2018-12-10T08:27:25.263Z,4.70
2018-12-10T08:29:53.032Z,4.60
2018-12-10T08:32:20.883Z,4.50
2018-12-10T08:34:48.591Z,4.50
2018-12-10T08:37:16.256Z,4.40
2018-12-10T08:39:44.017Z,4.30
2018-12-10T08:42:11.725Z,4.20
2018-12-10T08:44:39.431Z,4.10
2018-12-10T08:47:07.264Z,4.10
2018-12-10T08:49:34.919Z,4.00
2018-12-10T08:52:02.644Z,3.90
2018-12-10T08:54:30.372Z,4.30
2018-12-10T08:56:58.111Z,5.00
2018-12-10T08:59:25.819Z,5.70
2018-12-10T09:01:53.496Z,6.10
2018-12-10T09:04:21.187Z,6.40
2018-12-10T09:06:48.965Z,6.00
2018-12-10T09:09:16.681Z,5.30
2018-12-10T09:11:44.608Z,4.90
2018-12-10T09:14:12.372Z,4.70
2018-12-10T09:16:40.133Z,4.60
2018-12-10T09:19:07.862Z,4.90
2018-12-10T09:21:35.642Z,5.20
2018-12-10T09:24:03.468Z,5.10
2018-12-10T09:26:31.336Z,5.00
2018-12-10T09:28:59.168Z,5.10
2018-12-10T09:31:26.931Z,5.20
2018-12-10T09:34:00.015Z,5.40
2018-12-10T09:36:28.773Z,5.60
2018-12-10T09:41:32.982Z,6.10
2018-12-10T09:44:04.491Z,6.00
2018-12-10T09:46:33.471Z,5.90
2018-12-10T09:49:02.017Z,5.80
2018-12-10T09:51:30.258Z,5.80
2018-12-10T09:53:59.222Z,5.80
2018-12-10T09:56:30.606Z,6.20
2018-12-10T09:58:59.768Z,6.20
2018-12-10T10:04:00.958Z,5.70
2018-12-10T10:06:29.333Z,5.60
2018-12-10T10:08:58.070Z,5.60
2018-12-10T10:11:29.268Z,5.50
2018-12-10T10:13:58.076Z,5.50
2018-12-10T10:16:26.164Z,5.50
2018-12-10T10:21:28.709Z,5.40
2018-12-10T10:23:59.490Z,5.40
2018-12-10T10:26:27.629Z,5.40
2018-12-10T10:28:57.305Z,5.50
2018-12-10T10:31:25.475Z,5.60
2018-12-10T10:33:53.327Z,5.60
2018-12-10T10:36:21.163Z,5.70
2018-12-10T10:38:48.906Z,5.60
2018-12-10T10:41:16.629Z,5.60
2018-12-10T10:43:44.399Z,5.40
2018-12-10T10:46:12.168Z,5.30
2018-12-10T10:48:39.926Z,5.20
2018-12-10T10:51:07.631Z,5.20
2018-12-10T10:53:35.434Z,5.10
2018-12-10T10:56:03.122Z,5.10
2018-12-10T10:58:30.952Z,5.20
2018-12-10T11:01:00.605Z,5.20
2018-12-10T11:03:30.960Z,5.20
2018-12-10T11:05:58.827Z,5.30
2018-12-10T11:08:26.830Z,5.50
2018-12-10T11:10:54.548Z,5.50
2018-12-10T11:13:22.323Z,5.60
2018-12-10T11:15:50.141Z,5.60
2018-12-10T11:18:17.895Z,5.70
2018-12-10T11:20:45.629Z,5.80
2018-12-10T11:23:13.294Z,5.90
2018-12-10T11:25:41.033Z,5.80
2018-12-10T11:28:08.703Z,5.80
2018-12-10T11:30:36.446Z,5.80
2018-12-10T11:33:04.144Z,5.80
2018-12-10T11:35:31.883Z,5.70
2018-12-10T11:38:00.512Z,5.70
2018-12-10T11:40:28.345Z,5.70
2018-12-10T11:42:56.052Z,5.70
2018-12-10T11:45:24.056Z,5.80
2018-12-10T11:47:51.776Z,6.00
2018-12-10T11:50:19.493Z,6.10
2018-12-10T11:52:47.263Z,6.00
2018-12-10T11:55:15.015Z,6.10
2018-12-10T11:57:42.775Z,6.20
2018-12-10T12:00:11.333Z,6.30
2018-12-10T12:02:39.498Z,6.30
2018-12-10T12:05:07.437Z,6.20
2018-12-10T12:07:35.212Z,6.20
2018-12-10T12:10:03.597Z,6.20
2018-12-10T12:12:31.357Z,6.10
2018-12-10T12:15:02.744Z,6.00
2018-12-10T12:17:30.760Z,6.00
2018-12-10T12:19:58.539Z,5.90
2018-12-10T12:22:26.317Z,5.90
2018-12-10T12:24:54.630Z,5.90
2018-12-10T12:27:23.953Z,6.00
2018-12-10T12:29:52.529Z,6.00
2018-12-10T12:32:20.267Z,6.00
2018-12-10T12:34:48.020Z,6.00
2018-12-10T12:37:15.777Z,6.00
2018-12-10T12:39:43.614Z,6.10
2018-12-10T12:42:11.358Z,6.30
2018-12-10T12:44:40.057Z,6.30
2018-12-10T12:47:07.743Z,6.30
2018-12-10T12:49:35.570Z,6.40
2018-12-10T12:52:03.307Z,6.40
2018-12-10T12:54:31.161Z,6.40
2018-12-10T12:56:59.827Z,6.40
2018-12-10T12:59:27.571Z,6.40
2018-12-10T13:01:55.355Z,6.40
2018-12-10T13:04:22.998Z,6.30
2018-12-10T13:06:50.708Z,6.30
2018-12-10T13:09:21.934Z,6.30
2018-12-10T13:11:49.601Z,6.30
2018-12-10T13:14:17.399Z,6.30
2018-12-10T13:16:49.525Z,6.30
2018-12-10T13:19:16.457Z,6.30
2018-12-10T13:21:45.035Z,6.30
2018-12-10T13:24:13.388Z,6.20
2018-12-10T13:26:41.190Z,6.20
2018-12-10T13:29:10.093Z,6.20
2018-12-10T13:31:38.664Z,6.20
2018-12-10T13:34:06.486Z,6.20
2018-12-10T13:36:35.442Z,6.20
2018-12-10T13:39:05.118Z,6.10
2018-12-10T13:41:32.807Z,6.10
2018-12-10T13:44:01.888Z,6.10
2018-12-10T13:46:30.765Z,6.10
2018-12-10T13:48:58.822Z,6.10
2018-12-10T13:51:26.673Z,6.10
2018-12-10T13:53:54.369Z,6.10
2018-12-10T13:56:22.097Z,6.00
2018-12-10T13:58:49.933Z,6.00
2018-12-10T14:01:20.020Z,6.00
2018-12-10T14:03:48.193Z,5.90
2018-12-10T14:06:16.045Z,5.90
2018-12-10T14:08:43.790Z,5.80
2018-12-10T14:11:12.175Z,5.80
2018-12-10T14:13:39.888Z,5.80
2018-12-10T14:16:07.731Z,5.80
2018-12-10T14:18:35.520Z,5.80
2018-12-10T14:21:05.128Z,5.90
2018-12-10T14:23:32.903Z,5.90
2018-12-10T14:26:00.645Z,5.90
2018-12-10T14:28:28.343Z,5.90
2018-12-10T14:30:57.476Z,5.80
2018-12-10T14:33:25.165Z,5.80
2018-12-10T14:35:53.171Z,5.70
2018-12-10T14:38:20.900Z,5.70
2018-12-10T14:40:48.783Z,5.70
2018-12-10T14:43:16.604Z,5.60
2018-12-10T14:45:44.393Z,5.60
2018-12-10T14:48:12.095Z,5.60
2018-12-10T14:50:40.590Z,5.60
2018-12-10T14:53:08.330Z,5.50
2018-12-10T14:55:37.172Z,5.40
2018-12-10T14:58:05.372Z,5.40
2018-12-10T15:00:33.147Z,5.30
2018-12-10T15:03:00.894Z,5.20
2018-12-10T15:05:28.635Z,5.10
2018-12-10T15:07:56.373Z,5.10
2018-12-10T15:10:24.084Z,5.00
2018-12-10T15:12:51.970Z,4.90
2018-12-10T15:15:19.710Z,4.80
2018-12-10T15:17:47.484Z,4.80
2018-12-10T15:20:15.286Z,4.70
2018-12-10T15:22:43.165Z,4.60
2018-12-10T15:25:11.019Z,4.50
2018-12-10T15:27:38.822Z,4.50
2018-12-10T15:30:07.423Z,4.40
2018-12-10T15:32:35.327Z,4.30
2018-12-10T15:35:03.323Z,4.20
2018-12-10T15:37:31.107Z,4.20
2018-12-10T15:39:59.958Z,4.20
2018-12-10T15:42:27.775Z,4.10
2018-12-10T15:44:56.058Z,4.00
2018-12-10T15:47:24.386Z,4.00
2018-12-10T15:49:52.198Z,3.90
2018-12-10T15:52:19.982Z,4.00
2018-12-10T15:54:47.925Z,4.00
2018-12-10T15:57:15.777Z,4.00
2018-12-10T15:59:43.564Z,4.00
2018-12-10T16:02:11.353Z,4.00
2018-12-10T16:04:39.259Z,3.90
2018-12-10T16:07:07.495Z,3.80
2018-12-10T16:09:35.153Z,3.80
2018-12-10T16:12:02.863Z,3.90
2018-12-10T16:14:30.685Z,3.80
2018-12-10T16:16:58.376Z,3.80
2018-12-10T16:19:26.658Z,3.80
2018-12-10T16:21:54.395Z,3.80
2018-12-10T16:24:22.235Z,3.80
2018-12-10T16:26:50.207Z,3.90
2018-12-10T16:29:17.963Z,3.90
2018-12-10T16:31:46.703Z,3.80
2018-12-10T16:34:15.253Z,3.80
2018-12-10T16:36:42.998Z,3.80
2018-12-10T16:39:10.764Z,3.80
2018-12-10T16:41:38.606Z,3.80
2018-12-10T16:44:06.304Z,3.80
2018-12-10T16:46:34.084Z,3.70
2018-12-10T16:49:01.902Z,3.70
2018-12-10T16:51:29.731Z,3.70
2018-12-10T16:53:57.652Z,3.60
2018-12-10T16:56:26.841Z,3.60
2018-12-10T16:58:54.673Z,3.70
2018-12-10T17:01:22.554Z,3.70
2018-12-10T17:03:50.352Z,3.70
2018-12-10T17:06:18.985Z,3.80
2018-12-10T17:08:48.347Z,3.90
2018-12-10T17:11:17.747Z,3.90
2018-12-10T17:18:54.389Z,3.90
2018-12-10T17:21:24.542Z,3.90
2018-12-10T17:26:28.699Z,3.90
2018-12-10T17:28:58.277Z,3.90
2018-12-10T17:31:29.575Z,3.90
2018-12-10T17:34:00.638Z,4.10
2018-12-10T17:36:29.342Z,4.10
2018-12-10T17:38:59.078Z,4.10
2018-12-10T17:41:29.688Z,4.10
2018-12-10T17:44:01.884Z,4.00
2018-12-10T17:51:45.129Z,4.00
2018-12-10T17:54:13.189Z,3.90
2018-12-10T17:56:43.378Z,4.00
2018-12-10T17:59:11.267Z,4.00
2018-12-10T18:01:39.192Z,4.10
2018-12-10T18:04:07.010Z,4.10
2018-12-10T18:06:35.600Z,4.20
2018-12-10T18:09:06.260Z,4.20
2018-12-10T18:11:39.612Z,4.30
2018-12-10T18:14:07.794Z,4.30
2018-12-10T18:16:37.039Z,4.40
2018-12-10T18:19:07.661Z,4.30
2018-12-10T18:21:37.018Z,4.30
2018-12-10T18:24:04.939Z,4.30
2018-12-10T18:26:33.213Z,4.30
2018-12-10T18:29:00.951Z,4.30
2018-12-10T18:31:28.841Z,4.20
2018-12-10T18:33:56.674Z,4.20
2018-12-10T18:36:24.500Z,4.10
2018-12-10T18:38:52.311Z,4.00
2018-12-10T18:41:19.979Z,4.00
2018-12-10T18:43:48.449Z,3.90
2018-12-10T18:46:16.278Z,4.00
2018-12-10T18:48:44.191Z,3.90
2018-12-10T18:51:11.942Z,3.90
2018-12-10T18:53:39.653Z,3.80
2018-12-10T18:56:07.493Z,3.70
2018-12-10T18:58:35.335Z,3.70
2018-12-10T19:01:03.197Z,3.70
2018-12-10T19:03:30.976Z,3.70
2018-12-10T19:05:58.737Z,3.60
2018-12-10T19:08:26.629Z,3.60
2018-12-10T19:10:54.478Z,3.60
2018-12-10T19:13:22.652Z,3.60
2018-12-10T19:15:50.553Z,3.60
2018-12-10T19:18:18.404Z,3.50
2018-12-10T19:20:47.393Z,3.50
2018-12-10T19:23:15.211Z,3.50
2018-12-10T19:25:43.149Z,3.40
2018-12-10T19:28:13.417Z,3.40
2018-12-10T19:30:41.408Z,3.40
2018-12-10T19:33:09.329Z,3.40
2018-12-10T19:35:37.315Z,3.40
2018-12-10T19:38:05.087Z,3.40
2018-12-10T19:40:34.057Z,3.40
2018-12-10T19:43:01.833Z,3.40
2018-12-10T19:45:30.318Z,3.50
2018-12-10T19:47:58.147Z,3.50
2018-12-10T19:50:25.981Z,3.50
2018-12-10T19:52:53.891Z,3.50
2018-12-10T19:55:22.365Z,3.50
2018-12-10T19:57:50.466Z,3.60
2018-12-10T20:00:18.537Z,3.60
2018-12-10T20:02:46.723Z,3.50
2018-12-10T20:05:14.517Z,3.50
2018-12-10T20:07:43.280Z,3.50
2018-12-10T20:10:11.845Z,3.50
2018-12-10T20:12:39.642Z,3.50
2018-12-10T20:15:08.169Z,3.40
2018-12-10T20:17:36.616Z,3.40
2018-12-10T20:20:06.292Z,3.40
2018-12-10T20:22:34.629Z,3.40
2018-12-10T20:25:02.365Z,3.30
2018-12-10T20:27:30.750Z,3.30
2018-12-10T20:29:59.253Z,3.40
2018-12-10T20:32:27.039Z,3.40
2018-12-10T20:34:56.313Z,3.40
2018-12-10T20:37:24.124Z,3.50
2018-12-10T20:39:52.080Z,3.40
2018-12-10T20:42:19.934Z,3.40
2018-12-10T20:44:47.665Z,3.40
2018-12-10T20:47:15.404Z,3.40
2018-12-10T20:49:43.078Z,3.40
2018-12-10T20:52:10.918Z,3.40
2018-12-10T20:54:42.464Z,3.30
2018-12-10T20:57:10.241Z,3.30
2018-12-10T20:59:40.071Z,3.30
2018-12-10T21:02:07.885Z,3.40
2018-12-10T21:04:35.805Z,3.50
2018-12-10T21:07:03.706Z,3.50
2018-12-10T21:09:32.692Z,3.40
2018-12-10T21:12:01.064Z,3.40
2018-12-10T21:14:28.743Z,3.30
2018-12-10T21:16:56.570Z,3.30
2018-12-10T21:19:24.442Z,3.20
2018-12-10T21:21:53.128Z,3.10
2018-12-10T21:24:20.918Z,3.10
2018-12-10T21:26:48.672Z,3.10
2018-12-10T21:29:17.075Z,3.10
2018-12-10T21:31:44.992Z,3.10
2018-12-10T21:34:12.769Z,3.00
2018-12-10T21:36:40.599Z,3.00
2018-12-10T21:39:08.236Z,2.90
2018-12-10T21:41:37.003Z,3.00
2018-12-10T21:44:05.715Z,3.00
2018-12-10T21:46:33.641Z,3.00
2018-12-10T21:49:01.333Z,3.00
2018-12-10T21:51:29.111Z,3.00
2018-12-10T21:53:56.845Z,3.00
2018-12-10T21:56:24.902Z,3.00
2018-12-10T21:58:52.639Z,3.00
2018-12-10T22:01:20.462Z,3.00
2018-12-10T22:03:48.224Z,2.90
2018-12-10T22:06:16.168Z,2.90
2018-12-10T22:08:43.887Z,2.80
2018-12-10T22:11:11.568Z,2.80
2018-12-10T22:13:39.427Z,2.90
2018-12-10T22:16:07.233Z,2.90
2018-12-10T22:18:35.043Z,2.90
2018-12-10T22:21:03.300Z,2.90
2018-12-10T22:23:31.068Z,2.90
2018-12-10T22:25:58.724Z,3.00
2018-12-10T22:28:26.602Z,3.00
2018-12-10T22:30:54.364Z,3.20
2018-12-10T22:33:22.088Z,3.40
2018-12-10T22:35:49.822Z,3.50
2018-12-10T22:38:17.509Z,3.50
2018-12-10T22:40:45.431Z,3.50
2018-12-10T22:43:14.135Z,3.60
2018-12-10T22:45:42.017Z,3.60
2018-12-10T22:48:16.549Z,3.70
2018-12-10T22:50:44.305Z,3.70
2018-12-10T22:53:13.870Z,3.70
2018-12-10T22:55:42.853Z,3.70
2018-12-10T22:58:12.137Z,3.70
2018-12-10T23:00:41.902Z,3.70
2018-12-10T23:03:10.575Z,3.60
2018-12-10T23:05:39.206Z,3.60
2018-12-10T23:08:11.027Z,3.50
2018-12-10T23:10:39.099Z,3.50
2018-12-10T23:13:06.847Z,3.50
2018-12-10T23:15:34.961Z,3.50
2018-12-10T23:18:02.733Z,3.40
2018-12-10T23:20:31.232Z,3.40
2018-12-10T23:22:59.654Z,3.50
2018-12-10T23:25:28.529Z,3.50
2018-12-10T23:27:56.349Z,3.60
2018-12-10T23:30:28.111Z,3.60
2018-12-10T23:32:55.715Z,3.50
2018-12-10T23:35:23.457Z,3.60
2018-12-10T23:37:51.231Z,3.70
2018-12-10T23:40:19.113Z,3.70
2018-12-10T23:42:48.697Z,3.80
2018-12-10T23:45:16.364Z,3.80
2018-12-10T23:47:44.954Z,3.70
2018-12-10T23:50:12.660Z,3.70
2018-12-10T23:52:45.055Z,3.70
2018-12-10T23:55:12.752Z,3.60
2018-12-10T23:57:47.162Z,3.50
